createdAt,value
2019-03-01T00:00:31.258Z,108.80
2019-03-01T00:03:04.559Z,111.80
2019-03-01T00:06:14.585Z,129.20
2019-03-01T00:09:16.798Z,110.00
2019-03-01T00:12:42.667Z,111.80
2019-03-01T00:15:28.732Z,116.20
2019-03-01T00:18:16.428Z,117.80
2019-03-01T00:21:04.383Z,118.60
2019-03-01T00:23:59.253Z,119.40
2019-03-01T00:26:52.317Z,132.00
2019-03-01T00:30:01.565Z,117.40
2019-03-01T00:32:56.048Z,128.20
2019-03-01T00:36:12.659Z,130.40
2019-03-01T00:39:20.326Z,134.60
2019-03-01T00:42:30.728Z,136.80
2019-03-01T00:45:02.471Z,133.60
2019-03-01T00:47:34.472Z,128.20
2019-03-01T00:50:06.756Z,138.00
2019-03-01T00:52:38.445Z,140.00
2019-03-01T00:55:10.145Z,156.40
2019-03-01T00:57:41.769Z,142.20
2019-03-01T01:00:20.743Z,150.00
2019-03-01T01:02:52.480Z,144.20
2019-03-01T01:05:24.663Z,148.80
2019-03-01T01:07:56.571Z,142.40
2019-03-01T01:10:28.601Z,150.80
2019-03-01T01:13:00.249Z,150.20
2019-03-01T01:15:31.851Z,141.60
2019-03-01T01:18:03.884Z,147.80
2019-03-01T01:20:35.612Z,155.20
2019-03-01T01:23:07.449Z,160.75
2019-03-01T01:25:38.997Z,155.00
2019-03-01T01:28:10.473Z,172.00
2019-03-01T01:30:42.465Z,170.50
2019-03-01T01:33:14.328Z,161.00
2019-03-01T01:35:46.136Z,171.75
2019-03-01T01:38:18.123Z,159.25
2019-03-01T01:40:50.224Z,172.25
2019-03-01T01:43:22.739Z,183.25
2019-03-01T01:45:54.313Z,164.75
2019-03-01T01:48:25.953Z,171.75
2019-03-01T01:50:57.696Z,192.25
2019-03-01T01:53:29.233Z,177.50
2019-03-01T01:56:00.724Z,190.00
2019-03-01T01:58:32.299Z,203.75
2019-03-01T02:01:03.888Z,204.25
2019-03-01T02:03:35.340Z,207.00
2019-03-01T02:06:07.214Z,214.00
2019-03-01T02:08:42.281Z,220.50
2019-03-01T02:11:14.593Z,233.00
2019-03-01T02:13:46.293Z,228.00
2019-03-01T02:16:17.931Z,233.25
2019-03-01T02:18:57.506Z,245.00
2019-03-01T02:21:23.484Z,250.00
2019-03-01T02:23:55.092Z,236.00
2019-03-01T02:26:26.974Z,244.00
2019-03-01T02:28:59.113Z,230.50
2019-03-01T02:31:30.932Z,220.50
2019-03-01T02:34:02.981Z,204.25
2019-03-01T02:36:34.763Z,188.00
2019-03-01T02:39:06.852Z,179.00
2019-03-01T02:41:39.209Z,187.75
2019-03-01T02:44:10.961Z,184.50
2019-03-01T02:46:42.753Z,178.75
2019-03-01T02:49:15.077Z,185.00
2019-03-01T02:51:46.785Z,190.25
2019-03-01T02:54:18.534Z,194.75
2019-03-01T02:56:50.262Z,196.00
2019-03-01T02:59:21.833Z,184.50
2019-03-01T03:01:53.388Z,185.75
2019-03-01T03:04:25.222Z,167.00
2019-03-01T03:07:05.851Z,175.25
2019-03-01T03:09:38.327Z,164.00
2019-03-01T03:12:11.761Z,163.00
2019-03-01T03:14:43.602Z,161.20
2019-03-01T03:17:15.314Z,155.80
2019-03-01T03:19:46.833Z,146.60
2019-03-01T03:22:18.437Z,157.50
2019-03-01T03:24:50.118Z,174.50
2019-03-01T03:27:21.839Z,200.75
2019-03-01T03:29:55.520Z,159.25
2019-03-01T03:32:27.880Z,234.25
2019-03-01T03:34:59.805Z,233.00
2019-03-01T03:37:31.216Z,213.75
2019-03-01T03:40:03.605Z,228.75
2019-03-01T03:42:35.274Z,216.25
2019-03-01T03:45:07.380Z,197.00
2019-03-01T03:47:39.080Z,165.25
2019-03-01T03:50:11.809Z,182.00
2019-03-01T03:52:43.577Z,174.50
2019-03-01T03:55:16.253Z,166.20
2019-03-01T03:57:48.115Z,170.20
2019-03-01T04:00:20.814Z,161.40
2019-03-01T04:02:52.672Z,164.20
2019-03-01T04:05:24.503Z,158.60
2019-03-01T04:08:00.945Z,164.60
2019-03-01T04:10:32.579Z,155.20
2019-03-01T04:13:04.082Z,157.20
2019-03-01T04:15:35.709Z,138.80
2019-03-01T04:18:07.436Z,135.20
2019-03-01T04:20:39.420Z,133.20
2019-03-01T04:23:11.095Z,117.00
2019-03-01T04:25:42.794Z,121.80
2019-03-01T04:28:14.846Z,114.00
2019-03-01T04:30:46.391Z,107.40
2019-03-01T04:33:17.918Z,110.40
2019-03-01T04:35:49.602Z,104.80
2019-03-01T04:38:21.797Z,108.60
2019-03-01T04:40:53.399Z,106.40
2019-03-01T04:43:25.264Z,107.80
2019-03-01T04:45:57.987Z,102.40
2019-03-01T04:48:30.505Z,99.00
2019-03-01T04:51:02.176Z,98.00
2019-03-01T04:53:33.746Z,97.20
2019-03-01T04:56:05.524Z,83.40
2019-03-01T04:58:37.143Z,84.40
2019-03-01T05:01:08.604Z,85.80
2019-03-01T05:03:40.475Z,93.80
2019-03-01T05:06:12.065Z,89.20
2019-03-01T05:08:43.685Z,91.00
2019-03-01T05:11:15.214Z,107.60
2019-03-01T05:13:47.937Z,108.80
2019-03-01T05:16:19.460Z,105.80
2019-03-01T05:18:50.842Z,109.80
2019-03-01T05:21:22.089Z,96.60
2019-03-01T05:23:54.672Z,102.60
2019-03-01T05:26:26.624Z,97.60
2019-03-01T05:28:58.163Z,98.40
2019-03-01T05:31:29.807Z,100.00
2019-03-01T05:34:01.648Z,96.00
2019-03-01T05:36:33.536Z,95.40
2019-03-01T05:39:06.330Z,95.80
2019-03-01T05:41:38.718Z,94.60
2019-03-01T05:44:10.409Z,98.40
2019-03-01T05:46:42.014Z,89.40
2019-03-01T05:49:13.505Z,88.60
2019-03-01T05:51:45.475Z,82.00
2019-03-01T05:54:17.116Z,81.00
2019-03-01T05:56:48.658Z,78.20
2019-03-01T05:59:26.494Z,82.20
2019-03-01T06:02:40.896Z,67.60
2019-03-01T06:05:16.426Z,70.60
2019-03-01T06:07:57.921Z,70.40
2019-03-01T06:10:54.256Z,66.20
2019-03-01T06:13:57.208Z,74.60
2019-03-01T06:16:42.003Z,75.20
2019-03-01T06:19:25.714Z,66.80
2019-03-01T06:22:46.022Z,68.00
2019-03-01T06:25:40.116Z,70.40
2019-03-01T06:28:56.300Z,71.40
2019-03-01T06:32:01.157Z,66.00
2019-03-01T06:34:58.820Z,65.60
2019-03-01T06:37:53.589Z,69.00
2019-03-01T06:41:19.946Z,70.20
2019-03-01T06:44:27.283Z,64.60
2019-03-01T06:47:38.028Z,66.60
2019-03-01T06:50:18.065Z,68.60
2019-03-01T06:52:49.830Z,64.60
2019-03-01T06:55:40.080Z,64.80
2019-03-01T06:58:16.202Z,64.60
2019-03-01T07:00:50.634Z,65.60
2019-03-01T07:03:22.714Z,66.40
2019-03-01T07:06:02.978Z,66.00
2019-03-01T07:08:27.917Z,63.60
2019-03-01T07:10:59.535Z,59.60
2019-03-01T07:13:31.580Z,59.20
2019-03-01T07:16:04.163Z,63.40
2019-03-01T07:18:35.978Z,63.20
2019-03-01T07:21:07.758Z,59.40
2019-03-01T07:23:39.615Z,58.00
2019-03-01T07:26:11.310Z,57.40
2019-03-01T07:28:43.203Z,52.00
2019-03-01T07:31:15.813Z,58.20
2019-03-01T07:33:47.940Z,59.00
2019-03-01T07:36:20.402Z,59.20
2019-03-01T07:38:51.795Z,52.40
2019-03-01T07:41:23.595Z,53.00
2019-03-01T07:43:55.166Z,54.80
2019-03-01T07:46:26.907Z,56.40
2019-03-01T07:48:58.673Z,49.40
2019-03-01T07:51:30.704Z,50.60
2019-03-01T07:54:04.094Z,56.60
2019-03-01T07:56:36.971Z,54.40
2019-03-01T07:59:09.613Z,45.60
2019-03-01T08:01:41.439Z,49.80
2019-03-01T08:04:13.269Z,51.00
2019-03-01T08:06:45.594Z,45.80
2019-03-01T08:09:17.839Z,46.20
2019-03-01T08:11:49.136Z,46.40
2019-03-01T08:14:20.939Z,45.40
2019-03-01T08:16:52.667Z,48.00
2019-03-01T08:19:28.493Z,48.20
2019-03-01T08:22:00.210Z,51.20
2019-03-01T08:24:31.991Z,59.20
2019-03-01T08:27:06.606Z,56.20
2019-03-01T08:29:36.977Z,52.80
2019-03-01T08:32:08.681Z,50.40
2019-03-01T08:34:40.351Z,51.20
2019-03-01T08:37:14.475Z,49.80
2019-03-01T08:39:45.743Z,47.40
2019-03-01T08:42:17.651Z,50.00
2019-03-01T08:44:48.988Z,46.60
2019-03-01T08:47:23.743Z,51.60
2019-03-01T08:49:54.005Z,38.20
2019-03-01T08:52:25.925Z,41.20
2019-03-01T08:55:00.102Z,37.80
2019-03-01T08:57:31.534Z,46.20
2019-03-01T09:00:11.229Z,43.40
2019-03-01T09:02:46.047Z,46.40
2019-03-01T09:05:17.517Z,43.80
2019-03-01T09:07:49.466Z,42.80
2019-03-01T09:10:21.148Z,43.40
2019-03-01T09:12:53.260Z,41.80
2019-03-01T09:15:25.078Z,43.80
2019-03-01T09:17:57.174Z,40.40
2019-03-01T09:20:29.036Z,42.40
2019-03-01T09:23:04.949Z,39.00
2019-03-01T09:25:34.217Z,43.60
2019-03-01T09:28:07.192Z,38.80
2019-03-01T09:30:40.352Z,40.80
2019-03-01T09:33:13.759Z,44.00
2019-03-01T09:35:50.076Z,41.00
2019-03-01T09:38:22.216Z,43.00
2019-03-01T09:40:54.614Z,41.20
2019-03-01T09:43:27.883Z,42.60
2019-03-01T09:46:00.425Z,42.20
2019-03-01T09:48:32.040Z,41.40
2019-03-01T09:51:03.764Z,42.00
2019-03-01T09:53:35.878Z,37.20
2019-03-01T09:56:09.665Z,36.40
2019-03-01T09:58:41.834Z,42.00
2019-03-01T10:01:16.297Z,38.60
2019-03-01T10:03:48.193Z,42.40
2019-03-01T10:06:19.706Z,39.80
2019-03-01T10:08:51.306Z,38.40
2019-03-01T10:11:22.696Z,38.80
2019-03-01T10:13:54.546Z,37.20
2019-03-01T10:16:26.464Z,41.20
2019-03-01T10:18:58.275Z,37.00
2019-03-01T10:21:29.909Z,37.00
2019-03-01T10:24:01.699Z,39.40
2019-03-01T10:26:33.656Z,37.80
2019-03-01T10:29:05.966Z,33.00
2019-03-01T10:31:38.569Z,39.00
2019-03-01T10:34:10.592Z,39.40
2019-03-01T10:36:42.753Z,41.60
2019-03-01T10:39:17.011Z,35.00
2019-03-01T10:41:49.220Z,41.00
2019-03-01T10:44:21.123Z,41.00
2019-03-01T10:46:53.449Z,35.20
2019-03-01T10:49:26.910Z,33.20
2019-03-01T10:51:58.841Z,34.00
2019-03-01T10:54:31.158Z,37.00
2019-03-01T10:57:03.472Z,40.80
2019-03-01T10:59:35.928Z,39.20
2019-03-01T11:02:08.924Z,31.60
2019-03-01T11:04:41.929Z,32.60
2019-03-01T11:07:15.613Z,37.00
2019-03-01T11:09:48.508Z,36.60
2019-03-01T11:12:22.108Z,38.20
2019-03-01T11:14:54.828Z,35.80
2019-03-01T11:17:27.559Z,30.00
2019-03-01T11:20:02.042Z,37.00
2019-03-01T11:22:35.908Z,34.80
2019-03-01T11:25:28.270Z,33.40
2019-03-01T11:28:01.080Z,35.60
2019-03-01T11:30:34.221Z,34.40
2019-03-01T11:33:06.677Z,33.40
2019-03-01T11:35:39.064Z,35.40
2019-03-01T11:38:15.115Z,38.80
2019-03-01T11:40:51.958Z,34.60
2019-03-01T11:43:25.412Z,32.80
2019-03-01T11:46:02.089Z,30.60
2019-03-01T11:48:35.793Z,36.40
2019-03-01T11:51:08.274Z,33.20
2019-03-01T11:53:40.610Z,39.40
2019-03-01T11:56:13.292Z,36.40
2019-03-01T11:58:51.219Z,30.00
2019-03-01T12:01:23.624Z,39.60
2019-03-01T12:03:55.827Z,40.00
2019-03-01T12:06:31.958Z,37.20
2019-03-01T12:09:05.977Z,38.00
2019-03-01T12:11:38.779Z,37.40
2019-03-01T12:14:11.085Z,40.40
2019-03-01T12:16:43.242Z,39.40
2019-03-01T12:19:15.334Z,40.20
2019-03-01T12:21:47.121Z,40.00
2019-03-01T12:24:19.996Z,37.00
2019-03-01T12:26:52.175Z,42.60
2019-03-01T12:29:25.285Z,39.00
2019-03-01T12:31:57.149Z,41.60
2019-03-01T12:34:29.394Z,43.20
2019-03-01T12:37:02.138Z,41.60
2019-03-01T12:39:34.672Z,42.60
2019-03-01T12:42:07.154Z,45.00
2019-03-01T12:44:39.213Z,39.80
2019-03-01T12:47:12.023Z,44.60
2019-03-01T12:49:44.116Z,45.60
2019-03-01T12:52:16.226Z,45.60
2019-03-01T12:54:48.831Z,42.40
2019-03-01T12:57:21.170Z,45.00
2019-03-01T13:00:00.479Z,45.20
2019-03-01T13:02:33.074Z,41.20
2019-03-01T13:05:05.763Z,44.20
2019-03-01T13:07:38.636Z,48.20
2019-03-01T13:10:14.710Z,49.20
2019-03-01T13:12:47.157Z,47.60
2019-03-01T13:15:22.106Z,43.40
2019-03-01T13:17:54.666Z,48.40
2019-03-01T13:20:27.050Z,49.60
2019-03-01T13:23:00.997Z,46.80
2019-03-01T13:25:32.078Z,50.80
2019-03-01T13:28:03.949Z,53.00
2019-03-01T13:30:35.878Z,52.80
2019-03-01T13:33:08.409Z,52.20
2019-03-01T13:35:39.960Z,57.00
2019-03-01T13:38:11.574Z,58.20
2019-03-01T13:40:46.261Z,61.40
2019-03-01T13:43:17.875Z,58.60
2019-03-01T13:45:52.701Z,58.60
2019-03-01T13:48:22.841Z,68.40
2019-03-01T13:50:54.294Z,82.00
2019-03-01T13:53:25.756Z,81.20
2019-03-01T13:56:00.217Z,100.80
2019-03-01T13:58:31.340Z,90.20
2019-03-01T14:01:03.006Z,94.60
2019-03-01T14:03:35.146Z,163.40
2019-03-01T14:06:06.958Z,177.50
2019-03-01T14:08:39.145Z,126.00
2019-03-01T14:11:11.048Z,167.75
2019-03-01T14:13:42.946Z,182.00
2019-03-01T14:16:17.085Z,154.50
2019-03-01T14:18:49.013Z,149.40
2019-03-01T14:21:21.073Z,123.40
2019-03-01T14:23:52.874Z,119.80
2019-03-01T14:26:24.563Z,112.00
2019-03-01T14:28:57.339Z,115.60
2019-03-01T14:31:29.298Z,115.80
2019-03-01T14:34:01.080Z,123.80
2019-03-01T14:36:33.879Z,130.20
2019-03-01T14:39:09.559Z,120.80
2019-03-01T14:41:41.605Z,141.00
2019-03-01T14:44:13.445Z,138.40
2019-03-01T14:46:45.158Z,138.00
2019-03-01T14:49:18.537Z,122.80
2019-03-01T14:51:50.929Z,115.20
2019-03-01T14:54:22.967Z,115.80
2019-03-01T14:57:01.427Z,108.80
2019-03-01T14:59:44.254Z,100.60
2019-03-01T15:02:56.508Z,106.20
2019-03-01T15:05:28.369Z,107.80
2019-03-01T15:08:03.114Z,114.00
2019-03-01T15:10:35.578Z,114.60
2019-03-01T15:13:12.358Z,112.60
2019-03-01T15:15:44.919Z,101.80
2019-03-01T15:18:17.122Z,123.80
2019-03-01T15:20:48.986Z,119.40
2019-03-01T15:23:23.771Z,118.00
2019-03-01T15:25:54.474Z,124.60
2019-03-01T15:28:26.529Z,129.40
2019-03-01T15:30:58.619Z,121.60
2019-03-01T15:33:30.220Z,114.40
2019-03-01T15:36:01.882Z,133.80
2019-03-01T15:38:34.128Z,131.40
2019-03-01T15:41:06.547Z,114.40
2019-03-01T15:43:41.357Z,124.40
2019-03-01T15:46:14.346Z,129.40
2019-03-01T15:48:46.705Z,130.60
2019-03-01T15:51:18.376Z,134.80
2019-03-01T15:53:49.831Z,139.20
2019-03-01T15:56:23.058Z,152.80
2019-03-01T15:58:54.895Z,139.20
2019-03-01T16:01:26.522Z,144.80
2019-03-01T16:03:58.489Z,144.60
2019-03-01T16:06:30.280Z,136.00
2019-03-01T16:09:02.304Z,141.00
2019-03-01T16:11:35.607Z,145.60
2019-03-01T16:14:07.471Z,135.60
2019-03-01T16:16:39.110Z,147.20
2019-03-01T16:19:11.145Z,140.60
2019-03-01T16:21:44.447Z,141.00
2019-03-01T16:24:16.024Z,135.00
2019-03-01T16:26:48.145Z,134.20
2019-03-01T16:29:19.946Z,145.20
2019-03-01T16:31:51.809Z,136.80
2019-03-01T16:34:24.837Z,132.60
2019-03-01T16:36:58.215Z,120.80
2019-03-01T16:39:29.815Z,121.00
2019-03-01T16:42:03.114Z,124.40
2019-03-01T16:44:34.617Z,115.20
2019-03-01T16:47:06.769Z,116.20
2019-03-01T16:49:38.974Z,119.60
2019-03-01T16:52:11.330Z,118.80
2019-03-01T16:54:43.157Z,130.40
2019-03-01T16:57:15.668Z,130.60
2019-03-01T16:59:47.272Z,130.20
2019-03-01T17:02:21.184Z,125.80
2019-03-01T17:04:52.947Z,128.00
2019-03-01T17:07:28.562Z,136.40
2019-03-01T17:09:59.299Z,148.80
2019-03-01T17:12:30.899Z,140.80
2019-03-01T17:15:03.051Z,137.80
2019-03-01T17:17:36.857Z,150.40
2019-03-01T17:20:10.547Z,156.40
2019-03-01T17:22:42.390Z,158.25
2019-03-01T17:25:14.808Z,162.75
2019-03-01T17:27:46.721Z,156.75
2019-03-01T17:30:19.774Z,154.00
2019-03-01T17:32:51.934Z,149.75
2019-03-01T17:35:24.003Z,150.00
2019-03-01T17:37:55.554Z,147.20
2019-03-01T17:40:29.232Z,151.00
2019-03-01T17:43:02.622Z,153.80
2019-03-01T17:45:34.265Z,151.20
2019-03-01T17:48:07.307Z,148.60
2019-03-01T17:50:41.737Z,144.40
2019-03-01T17:53:12.485Z,154.20
2019-03-01T17:55:44.478Z,147.80
2019-03-01T17:58:16.710Z,146.40
2019-03-01T18:00:48.517Z,149.20
2019-03-01T18:03:20.370Z,152.60
2019-03-01T18:05:52.548Z,150.20
2019-03-01T18:08:25.428Z,147.20
2019-03-01T18:10:57.680Z,148.40
2019-03-01T18:13:29.628Z,153.00
2019-03-01T18:16:01.396Z,154.00
2019-03-01T18:18:33.045Z,158.40
2019-03-01T18:21:04.949Z,150.50
2019-03-01T18:23:37.917Z,151.80
2019-03-01T18:26:09.888Z,142.25
2019-03-01T18:28:41.891Z,148.40
2019-03-01T18:31:15.744Z,150.00
2019-03-01T18:33:47.457Z,152.25
2019-03-01T18:36:19.787Z,156.75
2019-03-01T18:38:51.669Z,155.75
2019-03-01T18:41:24.149Z,146.25
2019-03-01T18:43:58.471Z,164.00
2019-03-01T18:46:29.995Z,154.50
2019-03-01T18:49:01.877Z,147.50
2019-03-01T18:51:33.309Z,152.50
2019-03-01T18:54:05.268Z,150.75
2019-03-01T18:56:37.012Z,161.00
2019-03-01T18:59:09.019Z,166.25
2019-03-01T19:01:42.899Z,142.40
2019-03-01T19:04:16.691Z,152.20
2019-03-01T19:06:51.433Z,151.00
2019-03-01T19:09:22.952Z,150.40
2019-03-01T19:11:54.760Z,153.20
2019-03-01T19:14:26.630Z,147.20
2019-03-01T19:17:01.706Z,152.40
2019-03-01T19:19:32.254Z,138.00
2019-03-01T19:22:03.958Z,154.00
2019-03-01T19:24:42.844Z,134.60
2019-03-01T19:27:15.536Z,154.00
2019-03-01T19:29:44.215Z,158.60
2019-03-01T19:32:16.166Z,153.40
2019-03-01T19:34:49.590Z,150.60
2019-03-01T19:37:23.358Z,145.00
2019-03-01T19:39:55.613Z,156.40
2019-03-01T19:42:29.449Z,144.50
2019-03-01T19:45:04.311Z,160.75
2019-03-01T19:47:34.851Z,162.20
2019-03-01T19:50:08.071Z,146.00
2019-03-01T19:52:43.491Z,156.20
2019-03-01T19:55:14.071Z,145.20
2019-03-01T19:57:46.338Z,143.60
2019-03-01T20:00:21.461Z,155.25
2019-03-01T20:02:53.769Z,155.00
2019-03-01T20:05:27.803Z,153.20
2019-03-01T20:07:59.807Z,159.00
2019-03-01T20:10:32.295Z,144.00
2019-03-01T20:13:04.340Z,160.60
2019-03-01T20:15:37.031Z,150.00
2019-03-01T20:18:09.831Z,149.60
2019-03-01T20:20:42.448Z,151.80
2019-03-01T20:23:14.094Z,148.75
2019-03-01T20:25:47.581Z,158.60
2019-03-01T20:28:21.649Z,156.40
2019-03-01T20:30:53.609Z,156.80
2019-03-01T20:33:26.978Z,152.00
2019-03-01T20:36:02.552Z,158.20
2019-03-01T20:38:37.037Z,152.00
2019-03-01T20:41:08.433Z,153.00
2019-03-01T20:43:41.851Z,151.20
2019-03-01T20:46:16.388Z,150.40
2019-03-01T20:48:48.159Z,148.80
2019-03-01T20:51:26.320Z,148.80
2019-03-01T20:53:53.601Z,139.20
2019-03-01T20:56:27.089Z,138.20
2019-03-01T20:58:59.446Z,160.40
2019-03-01T21:01:33.797Z,144.80
2019-03-01T21:04:05.627Z,148.80
2019-03-01T21:06:37.337Z,155.40
2019-03-01T21:09:12.019Z,155.60
2019-03-01T21:11:45.577Z,150.80
2019-03-01T21:14:17.511Z,137.00
2019-03-01T21:16:49.565Z,150.20
2019-03-01T21:19:21.323Z,136.80
2019-03-01T21:21:53.049Z,151.00
2019-03-01T21:24:26.715Z,146.00
2019-03-01T21:26:59.970Z,147.40
2019-03-01T21:29:32.106Z,135.80
2019-03-01T21:32:04.071Z,155.20
2019-03-01T21:34:38.419Z,156.20
2019-03-01T21:37:09.140Z,156.40
2019-03-01T21:39:40.912Z,150.60
2019-03-01T21:42:12.636Z,152.60
2019-03-01T21:44:45.655Z,157.00
2019-03-01T21:47:17.409Z,149.00
2019-03-01T21:49:49.130Z,157.20
2019-03-01T21:52:20.696Z,145.40
2019-03-01T21:54:52.305Z,138.80
2019-03-01T21:57:27.566Z,156.80
2019-03-01T22:00:01.656Z,149.80
2019-03-01T22:02:34.102Z,155.00
2019-03-01T22:05:06.071Z,156.00
2019-03-01T22:07:38.261Z,142.00
2019-03-01T22:10:11.503Z,150.60
2019-03-01T22:12:43.289Z,157.00
2019-03-01T22:15:17.800Z,148.00
2019-03-01T22:17:49.777Z,156.20
2019-03-01T22:20:23.925Z,156.20
2019-03-01T22:22:56.086Z,143.40
2019-03-01T22:25:27.916Z,159.80
2019-03-01T22:28:01.119Z,137.40
2019-03-01T22:30:32.960Z,161.40
2019-03-01T22:33:04.917Z,149.40
2019-03-01T22:35:36.670Z,143.80
2019-03-01T22:38:08.395Z,156.80
2019-03-01T22:40:40.324Z,144.80
2019-03-01T22:43:12.188Z,155.20
2019-03-01T22:45:45.463Z,135.00
2019-03-01T22:48:17.518Z,144.40
2019-03-01T22:50:49.361Z,157.20
2019-03-01T22:53:20.947Z,155.80
2019-03-01T22:55:52.730Z,153.40
2019-03-01T22:58:24.221Z,155.60
2019-03-01T23:01:29.570Z,157.00
2019-03-01T23:04:05.212Z,156.80
2019-03-01T23:06:37.217Z,144.60
2019-03-01T23:09:13.881Z,145.60
2019-03-01T23:11:46.244Z,151.80
2019-03-01T23:14:17.850Z,157.00
2019-03-01T23:16:50.673Z,143.60
2019-03-01T23:19:22.976Z,155.60
2019-03-01T23:21:54.470Z,143.20
2019-03-01T23:24:26.313Z,147.20
2019-03-01T23:26:58.301Z,149.20
2019-03-01T23:29:30.961Z,145.80
2019-03-01T23:32:02.399Z,147.80
2019-03-01T23:34:34.421Z,157.60
2019-03-01T23:37:06.616Z,160.60
2019-03-01T23:39:38.243Z,153.60
2019-03-01T23:42:09.927Z,156.00
2019-03-01T23:44:42.328Z,140.40
2019-03-01T23:47:14.419Z,158.00
2019-03-01T23:49:46.386Z,155.40
2019-03-01T23:52:19.660Z,143.60
2019-03-01T23:54:53.769Z,165.60
2019-03-01T23:57:25.960Z,158.80
